Haywood, Virginia
Current Conditions -  °F | °C
As of 7:35 AM on Wednesday 26 Nov 2014 (Local Time) from KOMH Reporting Station
Heavy Rain Heavy Rain  
Wind Chill:   Ceiling: 700
Heat Index:   Visibility: 5mi
Dew Point:   Wind: 10mph
Humidity: 93%   Direction: 10°N
Pressure: 30.03"   Gusts: NA
Location:  38.45°N, 78.25°W
Report Text: KOMH 261235Z AUTO 01009KT 5SM +RA SCT004 BKN007 OVC020 06/05 A3003 RMK AO2 P0008
Loading
Personal Weather Stations






























Interactive Weather Map New forecast layout! Learn more

10-Day Weather Forecast

Advertisements
Track Severe Weather on mobile